createdAt,value
2019-04-27T00:00:03.750Z,96683.32
2019-04-27T00:02:46.273Z,96682.37
2019-04-27T00:05:43.402Z,96683.03
2019-04-27T00:08:38.736Z,96673.03
2019-04-27T00:11:13.679Z,96677.19
2019-04-27T00:13:44.955Z,96678.55
2019-04-27T00:16:50.532Z,96674.18
2019-04-27T00:19:46.565Z,96677.55
2019-04-27T00:22:27.016Z,96668.91
2019-04-27T00:24:59.457Z,96671.78
2019-04-27T00:27:30.682Z,96667.59
2019-04-27T00:30:03.718Z,96663.44
2019-04-27T00:32:34.685Z,96666.16
2019-04-27T00:35:08.271Z,96664.09
2019-04-27T00:37:56.403Z,96653.79
2019-04-27T00:40:43.645Z,96658.20
2019-04-27T00:43:14.696Z,96655.66
2019-04-27T00:45:45.805Z,96653.91
2019-04-27T00:48:16.823Z,96650.55
2019-04-27T00:50:48.387Z,96651.45
2019-04-27T00:53:19.417Z,96647.87
2019-04-27T00:56:13.871Z,96644.98
2019-04-27T00:59:06.951Z,96642.77
2019-04-27T01:01:43.586Z,96640.66
2019-04-27T01:04:20.393Z,96643.53
2019-04-27T01:06:53.924Z,96642.30
2019-04-27T01:09:26.007Z,96637.65
2019-04-27T01:11:57.167Z,96638.67
2019-04-27T01:14:29.560Z,96635.72
2019-04-27T01:17:00.529Z,96630.48
2019-04-27T01:19:32.244Z,96629.90
2019-04-27T01:22:03.349Z,96625.66
2019-04-27T01:24:34.450Z,96627.64
2019-04-27T01:27:21.160Z,96627.67
2019-04-27T01:29:52.604Z,96630.02
2019-04-27T01:32:23.608Z,96629.73
2019-04-27T01:34:54.620Z,96622.79
2019-04-27T01:37:25.846Z,96621.33
2019-04-27T01:39:56.988Z,96620.39
2019-04-27T01:42:29.476Z,96623.23
2019-04-27T01:45:00.600Z,96623.96
2019-04-27T01:47:31.651Z,96619.05
2019-04-27T01:50:04.507Z,96615.69
2019-04-27T01:52:35.506Z,96617.84
2019-04-27T01:55:08.595Z,96618.02
2019-04-27T01:57:40.109Z,96617.79
2019-04-27T02:00:33.474Z,96614.25
2019-04-27T02:03:06.197Z,96615.80
2019-04-27T02:05:45.682Z,96614.70
2019-04-27T02:08:16.782Z,96617.20
2019-04-27T02:10:49.630Z,96617.91
2019-04-27T02:13:21.033Z,96615.39
2019-04-27T02:15:52.313Z,96612.75
2019-04-27T02:18:34.817Z,96613.39
2019-04-27T02:20:56.207Z,96614.80
2019-04-27T02:23:29.339Z,96611.15
2019-04-27T02:26:00.562Z,96610.53
2019-04-27T02:28:50.481Z,96607.72
2019-04-27T02:31:46.741Z,96610.44
2019-04-27T02:34:20.877Z,96610.03
2019-04-27T02:36:52.016Z,96610.14
2019-04-27T02:39:23.027Z,96610.36
2019-04-27T02:41:54.113Z,96610.33
2019-04-27T02:44:30.895Z,96613.71
2019-04-27T02:47:02.056Z,96616.63
2019-04-27T02:49:33.184Z,96610.36
2019-04-27T02:52:21.271Z,96610.14
2019-04-27T02:54:52.550Z,96616.93
2019-04-27T02:57:23.567Z,96619.95
2019-04-27T02:59:54.899Z,96614.90
2019-04-27T03:02:54.309Z,96611.97
2019-04-27T03:05:29.671Z,96613.17
2019-04-27T03:08:00.796Z,96612.92
2019-04-27T03:10:32.200Z,96609.14
2019-04-27T03:13:13.190Z,96609.97
2019-04-27T03:16:01.943Z,96608.98
2019-04-27T03:18:41.807Z,96605.51
2019-04-27T03:21:19.850Z,96606.34
2019-04-27T03:23:50.239Z,96606.33
2019-04-27T03:26:41.752Z,96604.69
2019-04-27T03:29:12.647Z,96605.08
2019-04-27T03:31:47.093Z,96600.58
2019-04-27T03:34:17.751Z,96598.04
2019-04-27T03:36:51.568Z,96600.69
2019-04-27T03:39:22.326Z,96598.06
2019-04-27T03:41:53.587Z,96596.95
2019-04-27T03:44:24.750Z,96588.67
2019-04-27T03:46:55.915Z,96590.08
2019-04-27T03:49:35.161Z,96589.59
2019-04-27T03:52:34.373Z,96586.45
2019-04-27T03:55:11.612Z,96585.64
2019-04-27T03:57:55.751Z,96587.79
2019-04-27T04:00:26.905Z,96585.23
2019-04-27T04:03:00.570Z,96601.41
2019-04-27T04:05:30.896Z,96596.38
2019-04-27T04:08:02.115Z,96600.02
2019-04-27T04:10:34.849Z,96597.39
2019-04-27T04:13:16.969Z,96596.27
2019-04-27T04:15:56.531Z,96593.53
2019-04-27T04:18:29.684Z,96602.92
2019-04-27T04:21:00.605Z,96605.67
2019-04-27T04:23:31.587Z,96601.64
2019-04-27T04:26:02.734Z,96602.86
2019-04-27T04:28:35.206Z,96598.91
2019-04-27T04:31:10.873Z,96600.61
2019-04-27T04:33:40.374Z,96600.94
2019-04-27T04:36:11.575Z,96603.15
2019-04-27T04:38:43.005Z,96607.19
2019-04-27T04:41:19.999Z,96606.30
2019-04-27T04:44:05.056Z,96604.15
2019-04-27T04:47:00.182Z,96608.59
2019-04-27T04:49:30.523Z,96602.64
2019-04-27T04:52:01.619Z,96601.44
2019-04-27T04:54:33.773Z,96599.30
2019-04-27T04:57:04.932Z,96594.94
2019-04-27T04:59:36.177Z,96601.52
2019-04-27T05:02:07.517Z,96595.25
2019-04-27T05:04:39.113Z,96596.36
2019-04-27T05:07:10.171Z,96588.78
2019-04-27T05:09:41.251Z,96602.13
2019-04-27T05:12:12.247Z,96599.39
2019-04-27T05:14:43.277Z,96599.48
2019-04-27T05:17:14.778Z,96597.34
2019-04-27T05:19:46.148Z,96599.65
2019-04-27T05:22:17.212Z,96597.53
2019-04-27T05:25:00.661Z,96597.71
2019-04-27T05:27:32.494Z,96590.64
2019-04-27T05:30:04.958Z,96588.30
2019-04-27T05:32:36.038Z,96591.35
2019-04-27T05:35:08.707Z,96592.11
2019-04-27T05:37:39.998Z,96589.25
2019-04-27T05:40:11.744Z,96594.05
2019-04-27T05:42:43.305Z,96593.41
2019-04-27T05:45:53.180Z,96595.53
2019-04-27T05:48:27.864Z,96597.38
2019-04-27T05:51:02.060Z,96601.85
2019-04-27T05:53:33.351Z,96598.23
2019-04-27T05:56:04.352Z,96606.24
2019-04-27T05:58:35.554Z,96605.36
2019-04-27T06:01:06.674Z,96605.83
2019-04-27T06:03:39.689Z,96604.22
2019-04-27T06:06:10.889Z,96601.33
2019-04-27T06:08:41.912Z,96596.63
2019-04-27T06:11:14.083Z,96591.45
2019-04-27T06:13:45.130Z,96583.89
2019-04-27T06:16:16.186Z,96586.81
2019-04-27T06:18:47.237Z,96582.98
2019-04-27T06:21:19.617Z,96582.98
2019-04-27T06:23:51.635Z,96582.94
2019-04-27T06:26:22.645Z,96582.78
2019-04-27T06:28:54.099Z,96582.19
2019-04-27T06:31:25.359Z,96577.22
2019-04-27T06:33:56.469Z,96575.14
2019-04-27T06:36:28.750Z,96573.38
2019-04-27T06:39:00.383Z,96570.27
2019-04-27T06:41:32.994Z,96576.16
2019-04-27T06:44:05.064Z,96570.27
2019-04-27T06:46:36.418Z,96570.08
2019-04-27T06:49:09.047Z,96573.52
2019-04-27T06:51:41.257Z,96570.94
2019-04-27T06:54:12.307Z,96567.34
2019-04-27T06:56:43.276Z,96567.06
2019-04-27T06:59:14.320Z,96564.13
2019-04-27T07:01:45.431Z,96559.58
2019-04-27T07:04:17.097Z,96557.97
2019-04-27T07:06:54.118Z,96559.08
2019-04-27T07:09:22.429Z,96566.30
2019-04-27T07:11:53.503Z,96569.32
2019-04-27T07:14:24.750Z,96571.87
2019-04-27T07:16:56.060Z,96578.26
2019-04-27T07:19:28.648Z,96573.70
2019-04-27T07:22:00.513Z,96573.89
2019-04-27T07:24:32.552Z,96572.95
2019-04-27T07:27:03.651Z,96575.75
2019-04-27T07:29:34.795Z,96577.13
2019-04-27T07:32:06.213Z,96571.25
2019-04-27T07:34:38.757Z,96578.54
2019-04-27T07:37:11.154Z,96582.51
2019-04-27T07:39:42.228Z,96572.81
2019-04-27T07:42:13.259Z,96576.88
2019-04-27T07:44:50.016Z,96578.63
2019-04-27T07:47:23.040Z,96577.59
2019-04-27T07:49:54.044Z,96582.28
2019-04-27T07:52:25.153Z,96586.86
2019-04-27T07:54:56.550Z,96580.30
2019-04-27T07:57:28.944Z,96577.92
2019-04-27T08:00:00.062Z,96572.16
2019-04-27T08:02:31.672Z,96574.58
2019-04-27T08:05:02.780Z,96563.54
2019-04-27T08:07:33.834Z,96560.00
2019-04-27T08:10:05.666Z,96561.25
2019-04-27T08:12:38.540Z,96558.61
2019-04-27T08:15:09.902Z,96564.17
2019-04-27T08:17:42.961Z,96564.83
2019-04-27T08:20:14.143Z,96570.45
2019-04-27T08:22:45.138Z,96568.74
2019-04-27T08:25:16.240Z,96566.55
2019-04-27T08:27:54.229Z,96566.66
2019-04-27T08:30:35.619Z,96557.73
2019-04-27T08:33:09.159Z,96557.44
2019-04-27T08:35:40.732Z,96561.55
2019-04-27T08:38:11.895Z,96554.41
2019-04-27T08:40:43.044Z,96551.07
2019-04-27T08:43:14.090Z,96563.71
2019-04-27T08:45:45.222Z,96556.23
2019-04-27T08:48:16.223Z,96554.29
2019-04-27T08:50:48.660Z,96553.14
2019-04-27T08:53:19.782Z,96545.59
2019-04-27T08:55:52.789Z,96547.84
2019-04-27T08:58:23.969Z,96546.80
2019-04-27T09:00:55.162Z,96546.47
2019-04-27T09:03:26.223Z,96545.31
2019-04-27T09:05:58.973Z,96537.20
2019-04-27T09:08:39.034Z,96542.80
2019-04-27T09:11:29.033Z,96544.04
2019-04-27T09:14:19.311Z,96540.89
2019-04-27T09:17:12.660Z,96534.73
2019-04-27T09:20:02.663Z,96537.88
2019-04-27T09:22:33.690Z,96538.81
2019-04-27T09:25:05.202Z,96538.11
2019-04-27T09:27:36.282Z,96527.55
2019-04-27T09:30:10.232Z,96534.79
2019-04-27T09:32:41.549Z,96543.17
2019-04-27T09:35:12.707Z,96533.64
2019-04-27T09:37:43.764Z,96526.27
2019-04-27T09:40:17.069Z,96530.06
2019-04-27T09:42:48.139Z,96531.67
2019-04-27T09:45:19.419Z,96529.14
2019-04-27T09:47:50.475Z,96526.89
2019-04-27T09:50:21.721Z,96525.63
2019-04-27T09:52:55.575Z,96526.33
2019-04-27T09:55:26.490Z,96521.99
2019-04-27T09:57:57.596Z,96523.91
2019-04-27T10:00:29.429Z,96519.14
2019-04-27T10:03:00.805Z,96512.17
2019-04-27T10:05:33.694Z,96509.55
2019-04-27T10:08:06.158Z,96505.00
2019-04-27T10:10:37.727Z,96500.75
2019-04-27T10:13:09.440Z,96500.58
2019-04-27T10:15:40.458Z,96502.77
2019-04-27T10:18:11.543Z,96492.66
2019-04-27T10:20:56.287Z,96498.31
2019-04-27T10:23:15.581Z,96505.72
2019-04-27T10:25:47.640Z,96505.34
2019-04-27T10:28:18.973Z,96517.48
2019-04-27T10:30:50.063Z,96506.97
2019-04-27T10:33:21.855Z,96504.31
2019-04-27T10:35:52.867Z,96491.47
2019-04-27T10:38:25.671Z,96494.04
2019-04-27T10:40:56.688Z,96491.70
2019-04-27T10:43:27.685Z,96493.96
2019-04-27T10:45:58.703Z,96495.21
2019-04-27T10:48:29.848Z,96492.16
2019-04-27T10:51:01.182Z,96501.80
2019-04-27T10:53:32.175Z,96483.91
2019-04-27T10:56:03.707Z,96495.46
2019-04-27T10:58:35.643Z,96497.53
2019-04-27T11:01:08.947Z,96490.70
2019-04-27T11:04:03.364Z,96498.11
2019-04-27T11:06:40.176Z,96497.48
2019-04-27T11:09:12.783Z,96498.28
2019-04-27T11:11:44.134Z,96487.30
2019-04-27T11:14:16.016Z,96487.06
2019-04-27T11:16:47.250Z,96480.05
2019-04-27T11:19:18.319Z,96480.30
2019-04-27T11:21:50.137Z,96481.31
2019-04-27T11:24:21.565Z,96484.83
2019-04-27T11:26:52.591Z,96484.75
2019-04-27T11:29:23.700Z,96480.64
2019-04-27T11:31:55.645Z,96478.34
2019-04-27T11:34:45.888Z,96477.86
2019-04-27T11:37:20.661Z,96484.36
2019-04-27T11:39:51.661Z,96478.72
2019-04-27T11:42:22.671Z,96478.72
2019-04-27T11:44:56.254Z,96484.14
2019-04-27T11:47:27.478Z,96481.37
2019-04-27T11:49:58.550Z,96477.24
2019-04-27T11:52:30.039Z,96478.03
2019-04-27T11:55:01.131Z,96470.20
2019-04-27T11:57:32.215Z,96479.63
2019-04-27T12:00:04.451Z,96469.02
2019-04-27T12:02:35.838Z,96476.53
2019-04-27T12:05:08.284Z,96472.52
2019-04-27T12:07:39.291Z,96475.59
2019-04-27T12:10:10.990Z,96471.37
2019-04-27T12:12:42.046Z,96466.36
2019-04-27T12:15:13.589Z,96470.89
2019-04-27T12:17:46.143Z,96476.10
2019-04-27T12:20:18.054Z,96471.55
2019-04-27T12:22:49.088Z,96471.09
2019-04-27T12:25:20.535Z,96465.70
2019-04-27T12:28:10.718Z,96461.27
2019-04-27T12:31:00.967Z,96457.78
2019-04-27T12:33:32.048Z,96446.36
2019-04-27T12:36:04.452Z,96447.26
2019-04-27T12:38:36.568Z,96444.30
2019-04-27T12:41:07.752Z,96435.66
2019-04-27T12:43:38.847Z,96436.52
2019-04-27T12:46:10.652Z,96441.59
2019-04-27T12:48:42.014Z,96428.42
2019-04-27T12:51:13.289Z,96420.05
2019-04-27T12:54:05.949Z,96424.79
2019-04-27T12:56:47.859Z,96423.37
2019-04-27T12:59:36.950Z,96422.12
2019-04-27T13:02:09.519Z,96408.80
2019-04-27T13:04:40.537Z,96403.56
2019-04-27T13:07:11.641Z,96392.39
2019-04-27T13:09:43.029Z,96381.92
2019-04-27T13:12:14.107Z,96377.36
2019-04-27T13:14:45.762Z,96379.06
2019-04-27T13:17:17.052Z,96374.73
2019-04-27T13:19:48.224Z,96378.17
2019-04-27T13:22:19.323Z,96374.36
2019-04-27T13:24:50.629Z,96374.63
2019-04-27T13:27:21.674Z,96374.44
2019-04-27T13:29:52.711Z,96372.10
2019-04-27T13:32:24.047Z,96365.95
2019-04-27T13:34:56.628Z,96364.83
2019-04-27T13:37:52.895Z,96351.78
2019-04-27T13:40:25.928Z,96342.32
2019-04-27T13:43:11.230Z,96347.22
2019-04-27T13:46:01.256Z,96344.22
2019-04-27T13:48:51.471Z,96349.44
2019-04-27T13:52:00.399Z,96341.42
2019-04-27T13:54:31.472Z,96354.19
2019-04-27T13:57:02.640Z,96345.08
2019-04-27T13:59:34.665Z,96352.04
2019-04-27T14:02:06.549Z,96347.84
2019-04-27T14:04:37.575Z,96356.87
2019-04-27T14:07:09.147Z,96355.34
2019-04-27T14:09:40.370Z,96346.72
2019-04-27T14:12:18.736Z,96347.99
2019-04-27T14:14:51.186Z,96344.34
2019-04-27T14:17:22.261Z,96350.66
2019-04-27T14:19:53.349Z,96344.44
2019-04-27T14:22:24.343Z,96343.91
2019-04-27T14:24:55.346Z,96360.97
2019-04-27T14:27:28.995Z,96362.96
2019-04-27T14:30:01.211Z,96377.63
2019-04-27T14:32:35.069Z,96421.06
2019-04-27T14:35:08.294Z,96424.22
2019-04-27T14:37:40.315Z,96446.28
2019-04-27T14:40:13.140Z,96438.14
2019-04-27T14:42:44.373Z,96439.32
2019-04-27T14:45:15.545Z,96443.96
2019-04-27T14:47:48.182Z,96442.92
2019-04-27T14:50:19.357Z,96440.59
2019-04-27T14:52:51.334Z,96446.66
2019-04-27T14:55:22.329Z,96450.85
2019-04-27T14:57:53.501Z,96454.96
2019-04-27T15:00:25.711Z,96449.61
2019-04-27T15:02:56.690Z,96441.55
2019-04-27T15:05:27.863Z,96434.48
2019-04-27T15:08:01.668Z,96429.08
2019-04-27T15:10:33.057Z,96454.00
2019-04-27T15:13:06.420Z,96442.80
2019-04-27T15:15:38.705Z,96439.45
2019-04-27T15:18:10.399Z,96432.56
2019-04-27T15:20:46.443Z,96441.98
2019-04-27T15:23:16.945Z,96448.94
2019-04-27T15:25:49.868Z,96454.73
2019-04-27T15:28:24.330Z,96464.58
2019-04-27T15:31:23.553Z,96454.62
2019-04-27T15:34:19.381Z,96458.05
2019-04-27T15:37:08.635Z,96504.78
2019-04-27T15:40:00.067Z,96491.55
2019-04-27T15:42:53.263Z,96489.42
2019-04-27T15:45:24.680Z,96469.99
2019-04-27T15:47:59.031Z,96449.89
2019-04-27T15:50:32.110Z,96449.89
2019-04-27T15:53:02.930Z,96426.87
2019-04-27T15:55:38.954Z,96437.92
2019-04-27T15:58:09.760Z,96452.11
2019-04-27T16:00:41.441Z,96453.34
2019-04-27T16:03:12.776Z,96454.62
2019-04-27T16:05:43.833Z,96465.98
2019-04-27T16:08:15.627Z,96479.02
2019-04-27T16:10:48.725Z,96466.79
2019-04-27T16:13:19.923Z,96474.28
2019-04-27T16:15:54.043Z,96478.88
2019-04-27T16:18:28.500Z,96482.05
2019-04-27T16:20:58.596Z,96481.92
2019-04-27T16:23:33.650Z,96471.33
2019-04-27T16:26:04.974Z,96461.11
2019-04-27T16:28:36.296Z,96465.82
2019-04-27T16:31:07.736Z,96465.78
2019-04-27T16:33:39.178Z,96458.61
2019-04-27T16:36:10.503Z,96463.00
2019-04-27T16:39:08.211Z,96470.69
2019-04-27T16:41:42.133Z,96476.04
2019-04-27T16:44:13.303Z,96479.91
2019-04-27T16:46:44.337Z,96479.07
2019-04-27T16:49:18.669Z,96483.25
2019-04-27T16:51:49.835Z,96491.55
2019-04-27T16:54:21.425Z,96502.70
2019-04-27T16:57:02.527Z,96498.62
2019-04-27T16:59:42.634Z,96492.53
2019-04-27T17:01:59.282Z,96497.09
2019-04-27T17:04:31.442Z,96496.84
2019-04-27T17:07:02.591Z,96501.55
2019-04-27T17:09:39.707Z,96507.23
2019-04-27T17:12:06.907Z,96512.08
2019-04-27T17:14:52.849Z,96520.20
2019-04-27T17:17:42.810Z,96522.64
2019-04-27T17:20:13.088Z,96526.23
2019-04-27T17:22:45.655Z,96534.14
2019-04-27T17:25:20.146Z,96543.45
2019-04-27T17:28:04.180Z,96539.75
2019-04-27T17:30:39.760Z,96556.49
2019-04-27T17:33:21.005Z,96557.13
2019-04-27T17:35:51.465Z,96553.31
2019-04-27T17:38:22.463Z,96564.52
2019-04-27T17:40:53.533Z,96561.67
2019-04-27T17:43:24.690Z,96574.05
2019-04-27T17:45:55.864Z,96597.57
2019-04-27T17:48:28.748Z,96617.72
2019-04-27T17:51:02.630Z,96618.44
2019-04-27T17:53:33.166Z,96615.45
2019-04-27T17:56:05.960Z,96621.88
2019-04-27T17:58:39.634Z,96615.92
2019-04-27T18:01:13.977Z,96620.60
2019-04-27T18:03:44.074Z,96619.28
2019-04-27T18:06:15.300Z,96606.06
2019-04-27T18:08:48.543Z,96607.03
2019-04-27T18:11:21.534Z,96603.73
2019-04-27T18:13:55.939Z,96598.38
2019-04-27T18:16:30.466Z,96584.60
2019-04-27T18:19:09.776Z,96591.12
2019-04-27T18:21:56.792Z,96590.45
2019-04-27T18:24:38.155Z,96596.24
2019-04-27T18:27:20.360Z,96605.50
2019-04-27T18:29:51.598Z,96611.64
2019-04-27T18:32:23.473Z,96629.19
2019-04-27T18:34:55.428Z,96627.84
2019-04-27T18:37:28.220Z,96642.72
2019-04-27T18:39:59.316Z,96646.26
2019-04-27T18:42:32.357Z,96648.78
2019-04-27T18:45:06.947Z,96654.56
2019-04-27T18:47:40.511Z,96663.98
2019-04-27T18:50:19.118Z,96676.41
2019-04-27T18:52:53.476Z,96677.53
2019-04-27T18:55:24.501Z,96677.44
2019-04-27T18:57:55.585Z,96686.26
2019-04-27T19:00:27.705Z,96693.95
2019-04-27T19:02:59.576Z,96709.91
2019-04-27T19:05:39.690Z,96713.23
2019-04-27T19:08:04.913Z,96725.06
2019-04-27T19:10:36.049Z,96740.64
2019-04-27T19:13:08.795Z,96752.47
2019-04-27T19:15:40.477Z,96765.05
2019-04-27T19:18:11.595Z,96769.84
2019-04-27T19:20:43.643Z,96762.51
2019-04-27T19:23:14.753Z,96757.92
2019-04-27T19:26:03.730Z,96757.41
2019-04-27T19:28:48.302Z,96755.45
2019-04-27T19:31:24.482Z,96754.25
2019-04-27T19:33:56.667Z,96756.70
2019-04-27T19:36:27.974Z,96759.66
2019-04-27T19:39:01.426Z,96752.92
2019-04-27T19:41:34.108Z,96747.59
2019-04-27T19:44:05.580Z,96748.64
2019-04-27T19:46:36.958Z,96749.07
2019-04-27T19:49:08.751Z,96747.33
2019-04-27T19:51:40.022Z,96752.37
2019-04-27T19:54:11.083Z,96745.20
2019-04-27T19:56:42.179Z,96744.02
2019-04-27T19:59:19.426Z,96740.58
2019-04-27T20:01:52.182Z,96745.41
2019-04-27T20:04:27.399Z,96758.46
2019-04-27T20:06:58.520Z,96758.25
2019-04-27T20:09:53.612Z,96762.79
2019-04-27T20:12:24.614Z,96762.03
2019-04-27T20:14:55.801Z,96775.84
2019-04-27T20:17:31.770Z,96774.11
2019-04-27T20:20:03.566Z,96776.94
2019-04-27T20:22:35.688Z,96786.56
2019-04-27T20:25:07.269Z,96794.33
2019-04-27T20:27:48.833Z,96793.67
2019-04-27T20:30:13.417Z,96790.93
2019-04-27T20:32:46.343Z,96793.68
2019-04-27T20:35:17.415Z,96785.31
2019-04-27T20:37:48.478Z,96793.08
2019-04-27T20:40:21.607Z,96788.27
2019-04-27T20:42:53.906Z,96788.61
2019-04-27T20:45:24.968Z,96787.07
2019-04-27T20:47:55.942Z,96785.98
2019-04-27T20:50:27.033Z,96789.59
2019-04-27T20:52:58.999Z,96790.44
2019-04-27T20:55:30.067Z,96788.61
2019-04-27T20:58:02.542Z,96788.46
2019-04-27T21:00:34.316Z,96795.39
2019-04-27T21:03:20.787Z,96794.38
2019-04-27T21:06:11.187Z,96798.02
2019-04-27T21:08:43.031Z,96805.81
2019-04-27T21:11:14.058Z,96817.81
2019-04-27T21:13:45.177Z,96820.18
2019-04-27T21:16:16.251Z,96813.88
2019-04-27T21:18:47.316Z,96817.38
2019-04-27T21:21:18.369Z,96824.80
2019-04-27T21:23:51.528Z,96822.84
2019-04-27T21:26:23.351Z,96828.42
2019-04-27T21:28:54.555Z,96833.30
2019-04-27T21:31:25.661Z,96830.67
2019-04-27T21:33:56.857Z,96838.22
2019-04-27T21:36:27.953Z,96840.91
2019-04-27T21:38:59.015Z,96837.35
2019-04-27T21:41:31.218Z,96845.03
2019-04-27T21:44:02.317Z,96839.34
2019-04-27T21:46:34.907Z,96843.13
2019-04-27T21:49:07.275Z,96845.22
2019-04-27T21:51:57.285Z,96853.35
2019-04-27T21:54:30.859Z,96848.59
2019-04-27T21:57:02.233Z,96844.09
2019-04-27T21:59:33.222Z,96857.86
2019-04-27T22:02:07.183Z,96849.77
2019-04-27T22:04:38.596Z,96851.94
2019-04-27T22:07:11.423Z,96852.91
2019-04-27T22:09:43.292Z,96851.82
2019-04-27T22:12:14.479Z,96853.36
2019-04-27T22:14:46.094Z,96856.88
2019-04-27T22:17:17.161Z,96863.86
2019-04-27T22:19:48.317Z,96856.29
2019-04-27T22:22:26.651Z,96864.20
2019-04-27T22:25:06.553Z,96857.07
2019-04-27T22:27:37.548Z,96860.19
2019-04-27T22:30:11.014Z,96857.56
2019-04-27T22:32:42.239Z,96857.45
2019-04-27T22:35:13.557Z,96855.53
2019-04-27T22:37:44.571Z,96857.33
2019-04-27T22:40:33.515Z,96855.61
2019-04-27T22:43:23.389Z,96859.09
2019-04-27T22:45:54.937Z,96858.86
2019-04-27T22:48:25.955Z,96852.23
2019-04-27T22:50:57.300Z,96853.61
2019-04-27T22:53:28.831Z,96860.84
2019-04-27T22:56:16.557Z,96864.27
2019-04-27T22:59:00.651Z,96863.77
2019-04-27T23:01:45.858Z,96860.45
2019-04-27T23:04:21.802Z,96861.14
2019-04-27T23:06:52.882Z,96866.36
2019-04-27T23:09:23.886Z,96867.73
2019-04-27T23:11:55.234Z,96859.44
2019-04-27T23:14:26.230Z,96861.19
2019-04-27T23:17:03.219Z,96865.86
2019-04-27T23:19:34.473Z,96862.86
2019-04-27T23:22:06.457Z,96856.53
2019-04-27T23:24:37.559Z,96867.73
2019-04-27T23:27:08.756Z,96860.86
2019-04-27T23:29:41.855Z,96862.88
2019-04-27T23:32:21.095Z,96851.94
2019-04-27T23:34:53.629Z,96849.44
2019-04-27T23:37:24.982Z,96851.06
2019-04-27T23:39:57.108Z,96850.22
2019-04-27T23:42:28.371Z,96858.02
2019-04-27T23:44:59.430Z,96860.37
2019-04-27T23:47:30.461Z,96854.77
2019-04-27T23:50:01.590Z,96862.45
2019-04-27T23:52:52.442Z,96863.86
2019-04-27T23:55:26.191Z,96866.77
2019-04-27T23:57:57.264Z,96862.77
